createdAt,value
2017-07-15T00:01:49.437Z,12.60
2017-07-15T00:04:17.100Z,12.60
2017-07-15T00:06:44.770Z,12.60
2017-07-15T00:09:12.422Z,12.50
2017-07-15T00:11:40.089Z,12.50
2017-07-15T00:14:07.663Z,12.50
2017-07-15T00:16:35.688Z,12.50
2017-07-15T00:19:03.264Z,12.50
2017-07-15T00:21:30.854Z,12.40
2017-07-15T00:23:58.799Z,12.40
2017-07-15T00:26:27.036Z,12.40
2017-07-15T00:28:54.651Z,12.30
2017-07-15T00:31:22.326Z,12.30
2017-07-15T00:33:49.966Z,12.30
2017-07-15T00:36:17.596Z,12.30
2017-07-15T00:38:45.243Z,12.30
2017-07-15T00:41:13.223Z,12.20
2017-07-15T00:43:40.952Z,12.20
2017-07-15T00:46:08.546Z,12.20
2017-07-15T00:48:36.223Z,12.20
2017-07-15T00:51:03.823Z,12.10
2017-07-15T00:53:31.428Z,12.20
2017-07-15T00:55:59.404Z,12.20
2017-07-15T00:58:27.020Z,12.20
2017-07-15T01:00:54.610Z,12.20
2017-07-15T01:03:22.345Z,12.20
2017-07-15T01:05:50.027Z,12.20
2017-07-15T01:08:17.586Z,12.30
2017-07-15T01:10:45.595Z,12.30
2017-07-15T01:13:13.210Z,12.30
2017-07-15T01:15:40.843Z,12.30
2017-07-15T01:18:08.852Z,12.30
2017-07-15T01:20:36.448Z,12.30
2017-07-15T01:23:04.116Z,12.40
2017-07-15T01:25:32.386Z,12.40
2017-07-15T01:27:59.986Z,12.40
2017-07-15T01:30:27.574Z,12.40
2017-07-15T01:32:55.218Z,12.40
2017-07-15T01:35:22.862Z,12.40
2017-07-15T01:37:50.443Z,12.40
2017-07-15T01:40:18.226Z,12.40
2017-07-15T01:42:45.860Z,12.40
2017-07-15T01:45:14.141Z,12.50
2017-07-15T01:47:41.751Z,12.50
2017-07-15T01:50:09.368Z,12.50
2017-07-15T01:52:37.003Z,12.50
2017-07-15T01:55:04.617Z,12.50
2017-07-15T01:57:32.232Z,12.50
2017-07-15T01:59:59.887Z,12.50
2017-07-15T02:02:28.396Z,12.50
2017-07-15T02:04:56.012Z,12.50
2017-07-15T02:07:23.664Z,12.50
2017-07-15T02:09:51.259Z,12.50
2017-07-15T02:12:18.843Z,12.40
2017-07-15T02:14:46.515Z,12.40
2017-07-15T02:17:14.132Z,12.40
2017-07-15T02:19:46.835Z,12.40
2017-07-15T02:22:14.436Z,12.40
2017-07-15T02:24:42.084Z,12.40
2017-07-15T02:27:09.732Z,12.40
2017-07-15T02:29:37.893Z,12.40
2017-07-15T02:32:05.503Z,12.40
2017-07-15T02:34:33.118Z,12.40
2017-07-15T02:37:00.926Z,12.40
2017-07-15T02:39:29.394Z,12.40
2017-07-15T02:41:56.998Z,12.40
2017-07-15T02:44:24.646Z,12.40
2017-07-15T02:46:52.263Z,12.40
2017-07-15T02:49:19.865Z,12.40
2017-07-15T02:51:47.902Z,12.40
2017-07-15T02:54:15.555Z,12.30
2017-07-15T02:56:43.157Z,12.40
2017-07-15T02:59:11.584Z,12.30
2017-07-15T03:01:39.212Z,12.40
2017-07-15T03:04:06.803Z,12.30
2017-07-15T03:06:34.710Z,12.40
2017-07-15T03:09:02.336Z,12.40
2017-07-15T03:11:29.986Z,12.40
2017-07-15T03:13:57.600Z,12.40
2017-07-15T03:16:25.265Z,12.40
2017-07-15T03:18:52.884Z,12.40
2017-07-15T03:21:20.522Z,12.40
2017-07-15T03:23:48.518Z,12.40
2017-07-15T03:26:28.612Z,12.40
2017-07-15T03:28:56.370Z,12.40
2017-07-15T03:31:24.096Z,12.40
2017-07-15T03:33:51.769Z,12.50
2017-07-15T03:36:20.194Z,12.50
2017-07-15T03:38:47.795Z,12.50
2017-07-15T03:41:15.486Z,12.50
2017-07-15T03:43:43.079Z,12.50
2017-07-15T03:46:10.702Z,12.50
2017-07-15T03:48:38.367Z,12.50
2017-07-15T03:51:06.096Z,12.50
2017-07-15T03:53:33.691Z,12.50
2017-07-15T03:56:02.059Z,12.60
2017-07-15T03:58:29.847Z,12.60
2017-07-15T04:00:57.933Z,12.60
2017-07-15T04:03:25.616Z,12.60
2017-07-15T04:05:53.245Z,12.60
2017-07-15T04:08:20.843Z,12.60
2017-07-15T04:10:48.469Z,12.60
2017-07-15T04:13:16.673Z,12.60
2017-07-15T04:15:44.300Z,12.60
2017-07-15T04:18:11.939Z,12.60
2017-07-15T04:20:39.595Z,12.60
2017-07-15T04:23:07.210Z,12.70
2017-07-15T04:25:34.934Z,12.70
2017-07-15T04:28:02.562Z,12.70
2017-07-15T04:30:30.342Z,12.70
2017-07-15T04:32:57.935Z,12.70
2017-07-15T04:35:25.586Z,12.70
2017-07-15T04:37:53.343Z,12.70
2017-07-15T04:40:21.039Z,12.70
2017-07-15T04:42:48.712Z,12.70
2017-07-15T04:45:17.147Z,12.80
2017-07-15T04:47:44.886Z,12.80
2017-07-15T04:50:12.475Z,12.80
2017-07-15T04:52:40.107Z,12.80
2017-07-15T04:55:07.819Z,12.80
2017-07-15T04:57:35.430Z,12.90
2017-07-15T05:00:03.163Z,12.90
2017-07-15T05:02:30.827Z,12.90
2017-07-15T05:04:58.830Z,13.00
2017-07-15T05:07:26.455Z,13.00
2017-07-15T05:09:54.486Z,13.00
2017-07-15T05:12:22.079Z,13.10
2017-07-15T05:14:49.756Z,13.10
2017-07-15T05:17:17.465Z,13.20
2017-07-15T05:19:45.138Z,13.20
2017-07-15T05:22:14.556Z,13.30
2017-07-15T05:24:42.152Z,13.30
2017-07-15T05:27:09.862Z,13.30
2017-07-15T05:29:37.787Z,13.40
2017-07-15T05:32:05.391Z,13.40
2017-07-15T05:34:33.115Z,13.50
2017-07-15T05:37:00.851Z,13.50
2017-07-15T05:39:28.902Z,13.60
2017-07-15T05:41:57.243Z,13.60
2017-07-15T05:44:25.625Z,13.60
2017-07-15T05:46:53.710Z,13.60
2017-07-15T05:49:21.336Z,13.70
2017-07-15T05:51:48.915Z,13.70
2017-07-15T05:54:17.719Z,13.70
2017-07-15T05:56:46.095Z,13.70
2017-07-15T05:59:13.739Z,13.70
2017-07-15T06:01:42.220Z,13.80
2017-07-15T06:04:10.010Z,13.70
2017-07-15T06:06:37.616Z,13.80
2017-07-15T06:09:06.105Z,13.80
2017-07-15T06:11:33.716Z,13.90
2017-07-15T06:14:01.302Z,13.90
2017-07-15T06:16:28.948Z,14.00
2017-07-15T06:18:56.731Z,14.00
2017-07-15T06:21:24.343Z,14.00
2017-07-15T06:23:52.006Z,14.10
2017-07-15T06:26:19.936Z,14.10
2017-07-15T06:28:47.588Z,14.10
2017-07-15T06:31:15.225Z,14.20
2017-07-15T06:33:44.137Z,14.20
2017-07-15T06:36:11.779Z,14.20
2017-07-15T06:38:40.235Z,14.30
2017-07-15T06:41:08.031Z,14.30
2017-07-15T06:43:41.523Z,14.40
2017-07-15T06:46:09.170Z,14.40
2017-07-15T06:48:36.802Z,14.40
2017-07-15T06:51:04.577Z,14.40
2017-07-15T06:53:32.174Z,14.40
2017-07-15T06:56:00.577Z,14.40
2017-07-15T06:58:28.826Z,14.40
2017-07-15T07:00:56.500Z,14.50
2017-07-15T07:03:24.122Z,14.60
2017-07-15T07:05:51.786Z,14.60
2017-07-15T07:08:19.919Z,14.80
2017-07-15T07:10:47.545Z,14.90
2017-07-15T07:13:15.176Z,14.90
2017-07-15T07:15:43.276Z,15.00
2017-07-15T07:18:10.923Z,15.00
2017-07-15T07:20:38.571Z,15.10
2017-07-15T07:23:06.195Z,15.20
2017-07-15T07:25:33.858Z,15.30
2017-07-15T07:28:01.729Z,15.40
2017-07-15T07:30:29.713Z,15.50
2017-07-15T07:32:57.442Z,15.60
2017-07-15T07:35:25.184Z,15.70
2017-07-15T07:37:52.799Z,15.70
2017-07-15T07:40:20.845Z,15.70
2017-07-15T07:42:48.920Z,15.80
2017-07-15T07:45:17.125Z,15.80
2017-07-15T07:47:44.770Z,15.80
2017-07-15T07:50:12.383Z,15.80
2017-07-15T07:52:40.014Z,15.90
2017-07-15T07:55:07.726Z,16.00
2017-07-15T07:57:35.399Z,16.10
2017-07-15T08:00:03.489Z,16.20
2017-07-15T08:02:31.884Z,16.20
2017-07-15T08:05:00.336Z,16.20
2017-07-15T08:07:28.043Z,16.20
2017-07-15T08:09:55.687Z,16.20
2017-07-15T08:12:24.070Z,16.10
2017-07-15T08:14:51.771Z,16.10
2017-07-15T08:17:20.203Z,16.20
2017-07-15T08:19:47.852Z,16.30
2017-07-15T08:22:15.496Z,16.40
2017-07-15T08:24:43.174Z,16.40
2017-07-15T08:27:10.847Z,16.40
2017-07-15T08:29:38.473Z,16.40
2017-07-15T08:32:07.015Z,16.50
2017-07-15T08:34:34.737Z,16.70
2017-07-15T08:37:02.381Z,16.90
2017-07-15T08:39:30.084Z,17.10
2017-07-15T08:41:58.031Z,17.20
2017-07-15T08:44:25.648Z,17.20
2017-07-15T08:46:53.393Z,17.10
2017-07-15T08:49:21.784Z,17.20
2017-07-15T08:51:49.408Z,17.10
2017-07-15T08:54:17.096Z,17.30
2017-07-15T08:56:44.766Z,17.40
2017-07-15T08:59:12.365Z,17.50
2017-07-15T09:01:40.163Z,17.70
2017-07-15T09:04:08.119Z,17.80
2017-07-15T09:06:35.714Z,17.90
2017-07-15T09:09:03.444Z,17.90
2017-07-15T09:11:31.056Z,18.00
2017-07-15T09:13:59.503Z,17.90
2017-07-15T09:16:27.193Z,17.90
2017-07-15T09:19:00.151Z,17.80
2017-07-15T09:21:27.837Z,17.90
2017-07-15T09:23:55.486Z,18.20
2017-07-15T09:26:23.753Z,18.40
2017-07-15T09:28:51.361Z,18.30
2017-07-15T09:31:19.754Z,18.20
2017-07-15T09:33:47.596Z,18.20
2017-07-15T09:36:15.264Z,18.30
2017-07-15T09:38:43.739Z,18.70
2017-07-15T09:41:11.362Z,18.60
2017-07-15T09:43:39.391Z,18.80
2017-07-15T09:46:07.908Z,19.10
2017-07-15T09:48:35.643Z,19.10
2017-07-15T09:51:03.449Z,19.30
2017-07-15T09:53:31.132Z,19.40
2017-07-15T09:55:59.187Z,19.30
2017-07-15T09:58:26.799Z,19.10
2017-07-15T10:00:54.412Z,19.00
2017-07-15T10:03:22.559Z,19.10
2017-07-15T10:05:50.312Z,19.30
2017-07-15T10:08:17.942Z,19.50
2017-07-15T10:39:41.128Z,19.80
2017-07-15T11:10:25.555Z,19.80
2017-07-15T11:13:00.000Z,19.80
2017-07-15T11:15:30.714Z,19.80
2017-07-15T11:17:59.999Z,19.90
2017-07-15T11:38:14.331Z,21.00
2017-07-15T11:40:49.668Z,21.30
2017-07-15T12:06:23.863Z,22.10
2017-07-15T12:08:57.229Z,22.10
2017-07-15T12:11:25.236Z,22.20
2017-07-15T12:13:54.750Z,22.40
2017-07-15T12:16:28.941Z,22.40
2017-07-15T12:18:59.874Z,22.40
2017-07-15T12:21:28.127Z,22.50
2017-07-15T12:23:59.284Z,22.60
2017-07-15T12:26:27.487Z,22.60
2017-07-15T12:28:57.815Z,22.50
2017-07-15T12:31:26.253Z,22.60
2017-07-15T12:33:56.183Z,22.70
2017-07-15T12:45:05.105Z,22.60
2017-07-15T12:47:33.176Z,22.40
2017-07-15T12:50:02.209Z,22.30
2017-07-15T12:52:31.546Z,22.20
2017-07-15T12:55:06.216Z,22.30
2017-07-15T12:57:34.371Z,22.50
2017-07-15T13:00:02.990Z,22.60
2017-07-15T13:02:40.033Z,22.70
2017-07-15T13:16:55.919Z,22.90
2017-07-15T13:21:58.654Z,23.00
2017-07-15T13:24:31.823Z,23.10
2017-07-15T13:36:07.537Z,23.20
2017-07-15T13:41:30.052Z,23.00
2017-07-15T14:03:55.672Z,23.00
2017-07-15T14:40:44.916Z,23.20
2017-07-15T14:43:12.548Z,23.20
2017-07-15T14:45:40.262Z,23.20
2017-07-15T14:48:07.853Z,23.20
2017-07-15T14:50:35.482Z,23.20
2017-07-15T14:53:03.153Z,23.20
2017-07-15T14:55:30.750Z,23.20
2017-07-15T14:57:59.363Z,23.30
2017-07-15T15:00:27.069Z,23.30
2017-07-15T15:02:54.708Z,23.30
2017-07-15T15:05:22.315Z,23.20
2017-07-15T15:07:50.531Z,23.30
2017-07-15T15:10:18.202Z,23.20
2017-07-15T15:12:45.808Z,23.30
2017-07-15T15:15:14.336Z,23.30
2017-07-15T15:17:41.912Z,23.30
2017-07-15T15:20:09.612Z,23.30
2017-07-15T15:22:41.589Z,23.10
2017-07-15T15:36:09.253Z,23.10
2017-07-15T15:38:37.015Z,23.10
2017-07-15T15:41:05.361Z,23.00
2017-07-15T15:43:33.437Z,23.00
2017-07-15T15:46:01.268Z,23.10
2017-07-15T15:48:33.463Z,23.20
2017-07-15T15:51:05.960Z,23.40
2017-07-15T15:53:33.822Z,23.40
2017-07-15T15:56:01.464Z,23.50
2017-07-15T15:58:29.177Z,23.70
2017-07-15T16:00:57.995Z,23.90
2017-07-15T16:12:21.531Z,23.80
2017-07-15T16:14:49.237Z,23.70
2017-07-15T16:17:19.448Z,23.70
2017-07-15T16:19:47.245Z,23.60
2017-07-15T16:22:14.942Z,23.60
2017-07-15T16:24:53.937Z,23.70
2017-07-15T16:27:27.093Z,23.60
2017-07-15T16:29:56.408Z,23.60
2017-07-15T16:32:25.062Z,23.60
2017-07-15T16:34:52.924Z,23.60
2017-07-15T16:37:21.600Z,23.50
2017-07-15T16:39:49.362Z,23.50
2017-07-15T16:42:18.385Z,23.50
2017-07-15T16:44:49.085Z,23.60
2017-07-15T16:47:22.283Z,23.60
2017-07-15T16:49:51.785Z,23.70
2017-07-15T16:52:21.289Z,23.80
2017-07-15T16:54:49.435Z,23.80
2017-07-15T18:18:50.674Z,21.60
2017-07-15T18:30:05.162Z,21.40
2017-07-15T18:32:32.737Z,21.30
2017-07-15T18:35:00.523Z,21.30
2017-07-15T18:37:28.844Z,21.20
2017-07-15T18:41:56.330Z,21.20
2017-07-15T18:44:30.211Z,21.20
2017-07-15T18:46:57.923Z,21.10
2017-07-15T18:49:25.465Z,21.10
2017-07-15T18:51:59.292Z,21.00
2017-07-15T18:54:26.837Z,21.00
2017-07-15T18:56:54.706Z,20.90
2017-07-15T18:59:22.252Z,20.90
2017-07-15T19:01:49.803Z,20.80
2017-07-15T19:04:17.509Z,20.70
2017-07-15T19:06:45.207Z,20.70
2017-07-15T19:09:12.750Z,20.60
2017-07-15T19:11:41.063Z,20.50
2017-07-15T19:14:08.724Z,20.50
2017-07-15T19:16:36.268Z,20.40
2017-07-15T19:19:08.790Z,20.40
2017-07-15T19:21:36.344Z,20.30
2017-07-15T19:24:03.894Z,20.30
2017-07-15T19:26:31.480Z,20.20
2017-07-15T19:29:00.152Z,20.20
2017-07-15T19:31:27.697Z,20.20
2017-07-15T19:33:55.242Z,20.10
2017-07-15T19:36:22.893Z,20.10
2017-07-15T19:38:50.514Z,20.00
2017-07-15T19:41:18.103Z,20.00
2017-07-15T19:43:45.659Z,20.00
2017-07-15T19:46:14.618Z,19.90
2017-07-15T19:48:42.168Z,19.90
2017-07-15T19:51:09.817Z,19.80
2017-07-15T19:53:37.357Z,19.80
2017-07-15T19:56:04.940Z,19.80
2017-07-15T19:58:32.483Z,19.80
2017-07-15T20:01:00.098Z,19.70
2017-07-15T20:03:27.643Z,19.70
2017-07-15T20:05:55.194Z,19.60
2017-07-15T20:08:23.046Z,19.60
2017-07-15T20:10:50.605Z,19.50
2017-07-15T20:13:18.555Z,19.50
2017-07-15T20:15:46.103Z,19.50
2017-07-15T20:18:13.656Z,19.40
2017-07-15T20:20:41.252Z,19.40
2017-07-15T20:23:08.846Z,19.40
2017-07-15T20:25:36.409Z,19.30
2017-07-15T20:28:04.214Z,19.30
2017-07-15T20:30:31.765Z,19.30
2017-07-15T20:32:59.455Z,19.30
2017-07-15T20:35:27.006Z,19.30
2017-07-15T20:37:54.996Z,19.20
2017-07-15T20:40:22.571Z,19.20
2017-07-15T20:42:50.122Z,19.20
2017-07-15T20:45:18.073Z,19.10
2017-07-15T20:47:45.623Z,19.10
2017-07-15T20:50:13.178Z,19.10
2017-07-15T20:52:46.497Z,19.00
2017-07-15T20:55:14.446Z,19.00
2017-07-15T20:57:41.992Z,19.00
2017-07-15T21:00:09.538Z,19.00
2017-07-15T21:02:37.983Z,18.90
2017-07-15T21:05:05.838Z,18.90
2017-07-15T21:07:33.387Z,18.90
2017-07-15T21:10:00.952Z,18.90
2017-07-15T21:12:28.669Z,18.80
2017-07-15T21:14:56.978Z,18.80
2017-07-15T21:17:24.572Z,18.70
2017-07-15T21:19:52.124Z,18.70
2017-07-15T21:22:19.779Z,18.70
2017-07-15T21:24:47.327Z,18.70
2017-07-15T21:27:14.931Z,18.70
2017-07-15T21:29:42.489Z,18.70
2017-07-15T21:32:10.043Z,18.70
2017-07-15T21:34:37.789Z,18.60
2017-07-15T21:37:05.663Z,18.60
2017-07-15T21:39:33.209Z,18.60
2017-07-15T21:42:00.762Z,18.60
2017-07-15T21:44:28.499Z,18.50
2017-07-15T21:46:56.830Z,18.50
2017-07-15T21:49:24.418Z,18.50
2017-07-15T21:51:51.961Z,18.50
2017-07-15T21:54:19.551Z,18.50
2017-07-15T21:56:47.866Z,18.40
2017-07-15T21:59:15.767Z,18.40
2017-07-15T22:01:43.326Z,18.40
2017-07-15T22:04:10.870Z,18.40
2017-07-15T22:06:38.459Z,18.40
2017-07-15T22:09:06.017Z,18.30
2017-07-15T22:11:33.633Z,18.30
2017-07-15T22:14:01.179Z,18.30
2017-07-15T22:16:33.004Z,18.30
2017-07-15T22:19:00.558Z,18.20
2017-07-15T22:21:28.522Z,18.20
2017-07-15T22:23:56.068Z,18.20
2017-07-15T22:26:23.630Z,18.10
2017-07-15T22:28:51.219Z,18.10
2017-07-15T22:31:18.763Z,18.10
2017-07-15T22:33:46.631Z,18.10
2017-07-15T22:36:14.174Z,18.00
2017-07-15T22:38:41.758Z,18.00
2017-07-15T22:41:09.299Z,18.00
2017-07-15T22:43:36.885Z,18.00
2017-07-15T22:46:04.434Z,17.90
2017-07-15T22:48:32.019Z,17.90
2017-07-15T22:51:00.334Z,17.90
2017-07-15T22:53:28.352Z,17.80
2017-07-15T22:55:55.907Z,17.90
2017-07-15T22:58:23.449Z,17.80
2017-07-15T23:00:51.031Z,17.80
2017-07-15T23:03:18.595Z,17.80
2017-07-15T23:05:46.182Z,17.80
2017-07-15T23:08:14.493Z,17.70
2017-07-15T23:10:42.554Z,17.70
2017-07-15T23:13:10.098Z,17.70
2017-07-15T23:15:38.402Z,17.70
2017-07-15T23:18:06.400Z,17.60
2017-07-15T23:20:34.019Z,17.60
2017-07-15T23:23:01.566Z,17.60
2017-07-15T23:25:30.639Z,17.60
2017-07-15T23:27:59.523Z,17.60
2017-07-15T23:30:27.070Z,17.60
2017-07-15T23:32:54.694Z,17.60
2017-07-15T23:35:22.969Z,17.60
2017-07-15T23:37:50.509Z,17.50
2017-07-15T23:40:19.051Z,17.50
2017-07-15T23:42:48.511Z,17.50
2017-07-15T23:45:16.091Z,17.40
2017-07-15T23:47:43.671Z,17.40
2017-07-15T23:50:11.233Z,17.40
2017-07-15T23:52:38.777Z,17.40
2017-07-15T23:55:06.464Z,17.40
2017-07-15T23:57:34.011Z,17.40
